createdAt,value
2022-11-11T00:00:48.079Z,100.00
2022-11-11T00:03:34.577Z,100.00
2022-11-11T00:06:20.863Z,100.00
2022-11-11T00:09:07.018Z,100.00
2022-11-11T00:11:53.154Z,100.00
2022-11-11T00:14:40.792Z,100.00
2022-11-11T00:17:44.979Z,100.00
2022-11-11T00:20:49.385Z,100.00
2022-11-11T00:23:53.643Z,100.00
2022-11-11T00:26:43.377Z,100.00
2022-11-11T00:29:29.911Z,100.00
2022-11-11T00:32:28.888Z,100.00
2022-11-11T00:35:34.186Z,100.00
2022-11-11T00:38:39.612Z,100.00
2022-11-11T00:41:27.201Z,100.00
2022-11-11T00:44:13.766Z,100.00
2022-11-11T00:47:17.357Z,100.00
2022-11-11T00:50:24.382Z,100.00
2022-11-11T00:53:13.176Z,100.00
2022-11-11T00:56:00.095Z,100.00
2022-11-11T00:58:46.678Z,100.00
2022-11-11T01:01:33.112Z,100.00
2022-11-11T01:04:19.792Z,100.00
2022-11-11T01:07:07.297Z,100.00
2022-11-11T01:09:54.047Z,100.00
2022-11-11T01:12:40.655Z,100.00
2022-11-11T01:15:26.705Z,100.00
2022-11-11T01:18:15.017Z,100.00
2022-11-11T01:21:03.832Z,100.00
2022-11-11T01:23:52.941Z,100.00
2022-11-11T01:26:39.387Z,100.00
2022-11-11T01:29:25.786Z,100.00
2022-11-11T01:32:11.901Z,100.00
2022-11-11T01:34:58.171Z,100.00
2022-11-11T01:37:44.567Z,100.00
2022-11-11T01:40:32.259Z,100.00
2022-11-11T01:43:23.588Z,100.00
2022-11-11T01:46:26.957Z,100.00
2022-11-11T01:49:26.574Z,100.00
2022-11-11T01:52:15.750Z,100.00
2022-11-11T01:55:06.982Z,100.00
2022-11-11T01:57:58.486Z,100.00
2022-11-11T02:00:44.608Z,100.00
2022-11-11T02:03:34.482Z,100.00
2022-11-11T02:06:20.425Z,100.00
2022-11-11T02:09:08.610Z,100.00
2022-11-11T02:12:15.518Z,100.00
2022-11-11T02:15:04.121Z,100.00
2022-11-11T02:17:50.996Z,100.00
2022-11-11T02:20:40.220Z,100.00
2022-11-11T02:23:31.548Z,100.00
2022-11-11T02:26:19.903Z,100.00
2022-11-11T02:29:12.028Z,100.00
2022-11-11T02:31:58.523Z,100.00
2022-11-11T02:34:45.184Z,100.00
2022-11-11T02:37:31.273Z,100.00
2022-11-11T02:40:21.304Z,100.00
2022-11-11T02:43:09.060Z,100.00
2022-11-11T02:45:55.749Z,100.00
2022-11-11T02:48:41.864Z,100.00
2022-11-11T02:51:28.028Z,100.00
2022-11-11T02:54:14.936Z,100.00
2022-11-11T02:57:10.122Z,100.00
2022-11-11T02:59:59.775Z,100.00
2022-11-11T03:02:46.268Z,100.00
2022-11-11T03:05:33.380Z,100.00
2022-11-11T03:08:19.748Z,100.00
2022-11-11T03:11:06.461Z,100.00
2022-11-11T03:13:53.155Z,100.00
2022-11-11T03:16:58.294Z,100.00
2022-11-11T03:19:45.052Z,100.00
2022-11-11T03:25:40.160Z,100.00
2022-11-11T03:28:26.643Z,100.00
2022-11-11T03:31:13.075Z,100.00
2022-11-11T03:34:18.308Z,100.00
2022-11-11T03:37:23.371Z,100.00
2022-11-11T03:40:10.696Z,100.00
2022-11-11T03:43:02.969Z,100.00
2022-11-11T03:45:52.145Z,100.00
2022-11-11T03:48:38.339Z,100.00
2022-11-11T03:51:25.731Z,100.00
2022-11-11T03:54:12.213Z,100.00
2022-11-11T03:57:20.896Z,100.00
2022-11-11T04:00:14.224Z,100.00
2022-11-11T04:03:25.289Z,100.00
2022-11-11T04:06:29.509Z,100.00
2022-11-11T04:09:35.026Z,100.00
2022-11-11T04:12:21.905Z,100.00
2022-11-11T04:15:26.561Z,100.00
2022-11-11T04:18:12.972Z,100.00
2022-11-11T04:21:16.472Z,100.00
2022-11-11T04:24:02.975Z,100.00
2022-11-11T04:26:49.431Z,100.00
2022-11-11T04:29:35.901Z,100.00
2022-11-11T04:32:43.353Z,100.00
2022-11-11T04:35:29.411Z,100.00
2022-11-11T04:38:33.063Z,100.00
2022-11-11T04:41:19.383Z,100.00
2022-11-11T04:44:24.759Z,100.00
2022-11-11T04:47:11.065Z,99.62
2022-11-11T04:49:57.281Z,100.00
2022-11-11T04:52:44.020Z,99.60
2022-11-11T04:55:48.064Z,99.25
2022-11-11T04:58:35.118Z,100.00
2022-11-11T05:01:36.823Z,100.00
2022-11-11T05:04:23.102Z,99.74
2022-11-11T05:07:26.941Z,99.85
2022-11-11T05:10:13.198Z,100.00
2022-11-11T05:13:13.651Z,99.94
2022-11-11T05:16:17.490Z,99.17
2022-11-11T05:19:22.478Z,98.93
2022-11-11T05:22:14.056Z,99.24
2022-11-11T05:25:17.692Z,99.76
2022-11-11T05:28:04.121Z,100.00
2022-11-11T05:30:50.217Z,100.00
2022-11-11T05:33:36.466Z,100.00
2022-11-11T05:36:24.262Z,100.00
2022-11-11T05:39:10.611Z,100.00
2022-11-11T05:41:56.859Z,100.00
2022-11-11T05:44:42.991Z,100.00
2022-11-11T05:47:29.137Z,100.00
2022-11-11T05:50:16.025Z,99.85
2022-11-11T05:53:03.337Z,99.75
2022-11-11T05:55:51.192Z,99.95
2022-11-11T05:58:37.315Z,99.57
2022-11-11T06:01:23.894Z,100.00
2022-11-11T06:04:16.699Z,100.00
2022-11-11T06:07:04.604Z,99.28
2022-11-11T06:09:52.455Z,99.52
2022-11-11T06:13:02.046Z,99.71
2022-11-11T06:15:48.388Z,98.97
2022-11-11T06:18:34.581Z,99.98
2022-11-11T06:21:20.899Z,100.00
2022-11-11T06:24:07.496Z,100.00
2022-11-11T06:26:55.406Z,100.00
2022-11-11T06:29:42.289Z,100.00
2022-11-11T06:32:30.030Z,100.00
2022-11-11T06:35:16.350Z,100.00
2022-11-11T06:38:02.906Z,100.00
2022-11-11T06:40:49.293Z,100.00
2022-11-11T06:43:36.908Z,100.00
2022-11-11T06:46:24.885Z,100.00
2022-11-11T06:49:10.958Z,100.00
2022-11-11T06:51:57.159Z,100.00
2022-11-11T06:54:43.257Z,100.00
2022-11-11T06:57:29.469Z,99.75
2022-11-11T07:00:18.235Z,100.00
2022-11-11T07:03:05.040Z,99.16
2022-11-11T07:05:55.932Z,99.44
2022-11-11T07:08:44.868Z,99.95
2022-11-11T07:11:31.299Z,99.52
2022-11-11T07:14:17.458Z,98.78
2022-11-11T07:17:06.508Z,99.46
2022-11-11T07:19:53.225Z,100.00
2022-11-11T07:22:39.575Z,100.00
2022-11-11T07:25:25.936Z,100.00
2022-11-11T07:28:11.994Z,100.00
2022-11-11T07:30:58.121Z,100.00
2022-11-11T07:33:45.658Z,100.00
2022-11-11T07:36:31.908Z,99.79
2022-11-11T07:39:17.982Z,100.00
2022-11-11T07:42:04.299Z,98.79
2022-11-11T07:44:50.459Z,98.40
2022-11-11T07:47:37.059Z,97.43
2022-11-11T07:50:24.414Z,96.97
2022-11-11T07:53:10.535Z,97.09
2022-11-11T07:55:56.600Z,97.75
2022-11-11T07:58:42.663Z,97.81
2022-11-11T08:01:28.797Z,97.33
2022-11-11T08:04:14.928Z,96.73
2022-11-11T08:07:02.587Z,95.52
2022-11-11T08:09:48.727Z,94.95
2022-11-11T08:12:52.390Z,94.21
2022-11-11T08:15:38.692Z,93.01
2022-11-11T08:18:25.094Z,93.27
2022-11-11T08:21:11.365Z,93.05
2022-11-11T08:27:05.386Z,93.31
2022-11-11T08:29:51.627Z,93.13
2022-11-11T08:32:37.670Z,93.24
2022-11-11T08:35:23.875Z,93.68
2022-11-11T08:38:09.965Z,94.02
2022-11-11T08:41:00.991Z,94.00
2022-11-11T08:43:47.070Z,92.54
2022-11-11T08:46:33.322Z,92.45
2022-11-11T08:49:19.325Z,91.98
2022-11-11T08:52:05.669Z,92.01
2022-11-11T08:54:52.181Z,92.63
2022-11-11T08:57:39.545Z,92.36
2022-11-11T09:00:25.635Z,92.60
2022-11-11T09:03:13.053Z,92.40
2022-11-11T09:05:59.438Z,92.30
2022-11-11T09:08:45.901Z,91.23
2022-11-11T09:11:36.129Z,88.49
2022-11-11T09:14:24.030Z,87.22
2022-11-11T09:17:10.213Z,87.50
2022-11-11T09:19:56.368Z,87.47
2022-11-11T09:22:46.260Z,85.88
2022-11-11T09:25:32.324Z,84.16
2022-11-11T09:28:18.555Z,85.83
2022-11-11T09:31:37.460Z,84.34
2022-11-11T09:34:13.249Z,84.36
2022-11-11T09:36:59.564Z,82.15
2022-11-11T09:39:45.755Z,81.15
2022-11-11T09:42:38.693Z,82.06
2022-11-11T09:45:33.272Z,79.63
2022-11-11T09:48:38.602Z,79.20
2022-11-11T09:51:29.794Z,78.03
2022-11-11T09:54:23.033Z,78.55
2022-11-11T09:57:16.587Z,78.57
2022-11-11T10:00:07.296Z,78.28
2022-11-11T10:02:56.037Z,77.16
2022-11-11T10:05:49.418Z,77.13
2022-11-11T10:08:43.018Z,76.22
2022-11-11T10:11:52.233Z,74.65
2022-11-11T10:14:41.114Z,74.32
2022-11-11T10:17:35.818Z,72.99
2022-11-11T10:20:26.532Z,69.53
2022-11-11T10:23:17.148Z,70.38
2022-11-11T10:26:13.176Z,68.47
2022-11-11T10:29:01.633Z,68.38
2022-11-11T10:31:56.516Z,68.85
2022-11-11T10:34:42.965Z,70.82
2022-11-11T10:37:40.614Z,68.36
2022-11-11T10:40:35.574Z,68.10
2022-11-11T10:43:24.519Z,67.85
2022-11-11T10:46:17.266Z,67.68
2022-11-11T10:49:08.646Z,68.86
2022-11-11T10:52:04.066Z,67.46
2022-11-11T10:54:58.222Z,67.32
2022-11-11T10:57:52.825Z,65.78
2022-11-11T11:00:43.961Z,63.63
2022-11-11T11:03:35.393Z,64.93
2022-11-11T11:06:30.958Z,64.33
2022-11-11T11:09:22.342Z,61.93
2022-11-11T11:12:14.728Z,61.62
2022-11-11T11:15:09.517Z,59.83
2022-11-11T11:18:02.261Z,60.42
2022-11-11T11:20:59.011Z,60.93
2022-11-11T11:23:46.619Z,59.58
2022-11-11T11:26:44.911Z,61.46
2022-11-11T11:29:33.996Z,60.07
2022-11-11T11:32:23.762Z,59.69
2022-11-11T11:35:10.057Z,60.73
2022-11-11T11:37:56.095Z,62.50
2022-11-11T11:40:53.360Z,60.75
2022-11-11T11:43:42.654Z,61.61
2022-11-11T11:46:31.164Z,61.76
2022-11-11T11:49:33.181Z,61.02
2022-11-11T11:52:26.364Z,60.42
2022-11-11T11:55:17.762Z,60.42
2022-11-11T11:58:31.359Z,61.98
2022-11-11T12:01:23.261Z,59.70
2022-11-11T12:04:26.559Z,63.87
2022-11-11T12:07:21.597Z,62.50
2022-11-11T12:10:20.063Z,61.13
2022-11-11T12:13:15.911Z,59.23
2022-11-11T12:16:15.738Z,58.70
2022-11-11T12:19:17.317Z,58.71
2022-11-11T12:22:12.273Z,57.70
2022-11-11T12:25:08.504Z,57.20
2022-11-11T12:28:03.157Z,55.52
2022-11-11T12:30:52.819Z,55.41
2022-11-11T12:33:54.824Z,54.86
2022-11-11T12:36:49.252Z,52.22
2022-11-11T12:39:53.908Z,53.59
2022-11-11T12:42:52.963Z,53.73
2022-11-11T12:45:47.745Z,53.12
2022-11-11T12:48:47.344Z,53.62
2022-11-11T12:51:49.861Z,54.79
2022-11-11T12:54:46.304Z,53.12
2022-11-11T12:57:39.994Z,53.40
2022-11-11T13:00:27.272Z,53.25
2022-11-11T13:03:33.771Z,52.26
2022-11-11T13:06:40.844Z,52.70
2022-11-11T13:09:36.663Z,53.67
2022-11-11T13:12:29.503Z,54.05
2022-11-11T13:15:18.579Z,53.05
2022-11-11T13:18:13.567Z,54.73
2022-11-11T13:21:02.384Z,55.47
2022-11-11T13:23:48.516Z,54.99
2022-11-11T13:26:43.827Z,57.85
2022-11-11T13:29:55.275Z,57.56
2022-11-11T13:32:47.087Z,56.67
2022-11-11T13:35:37.355Z,57.26
2022-11-11T13:38:31.179Z,58.02
2022-11-11T13:41:25.205Z,57.83
2022-11-11T13:44:22.656Z,58.44
2022-11-11T13:47:17.912Z,60.33
2022-11-11T13:50:07.676Z,61.61
2022-11-11T13:52:58.915Z,63.56
2022-11-11T13:55:47.314Z,64.16
2022-11-11T13:58:36.658Z,64.76
2022-11-11T14:01:24.227Z,65.00
2022-11-11T14:04:12.567Z,64.78
2022-11-11T14:06:58.821Z,65.79
2022-11-11T14:10:00.324Z,64.71
2022-11-11T14:12:48.279Z,63.67
2022-11-11T14:15:40.970Z,64.51
2022-11-11T14:18:38.661Z,64.92
2022-11-11T14:21:50.524Z,65.72
2022-11-11T14:24:39.951Z,65.05
2022-11-11T14:27:30.414Z,65.63
2022-11-11T14:30:36.927Z,67.45
2022-11-11T14:33:39.466Z,67.23
2022-11-11T14:36:33.754Z,67.76
2022-11-11T14:39:33.685Z,68.63
2022-11-11T14:42:46.036Z,68.23
2022-11-11T14:46:02.499Z,70.18
2022-11-11T14:48:59.983Z,71.84
2022-11-11T14:51:52.101Z,71.85
2022-11-11T14:54:52.396Z,72.31
2022-11-11T14:57:40.828Z,73.06
2022-11-11T15:00:29.447Z,74.14
2022-11-11T15:03:22.194Z,76.10
2022-11-11T15:06:15.749Z,76.05
2022-11-11T15:09:14.059Z,78.00
2022-11-11T15:12:09.987Z,79.53
2022-11-11T15:15:04.431Z,81.07
2022-11-11T15:18:03.171Z,82.15
2022-11-11T15:21:07.634Z,83.82
2022-11-11T15:24:08.565Z,85.05
2022-11-11T15:27:02.029Z,86.02
2022-11-11T15:30:15.120Z,87.43
2022-11-11T15:33:10.589Z,89.47
2022-11-11T15:36:10.829Z,89.83
2022-11-11T15:39:00.161Z,90.27
2022-11-11T15:41:50.801Z,90.33
2022-11-11T15:44:38.498Z,91.34
2022-11-11T15:47:31.751Z,91.91
2022-11-11T15:50:30.848Z,92.71
2022-11-11T15:53:24.158Z,92.06
2022-11-11T15:56:10.780Z,91.97
2022-11-11T15:58:56.856Z,92.53
2022-11-11T16:01:43.296Z,92.07
2022-11-11T16:07:39.391Z,92.99
2022-11-11T16:10:29.036Z,94.22
2022-11-11T16:13:18.911Z,94.75
2022-11-11T16:16:10.283Z,95.10
2022-11-11T16:19:02.015Z,95.30
2022-11-11T16:21:55.722Z,95.55
2022-11-11T16:24:45.448Z,95.21
2022-11-11T16:27:33.731Z,96.24
2022-11-11T16:30:31.898Z,96.58
2022-11-11T16:33:34.024Z,96.44
2022-11-11T16:36:20.305Z,97.80
2022-11-11T16:39:21.573Z,98.56
2022-11-11T16:42:17.614Z,99.80
2022-11-11T16:45:05.847Z,99.01
2022-11-11T16:47:52.258Z,98.68
2022-11-11T16:50:56.235Z,98.71
2022-11-11T16:53:45.915Z,98.56
2022-11-11T16:56:36.007Z,99.01
2022-11-11T16:59:27.891Z,99.00
2022-11-11T17:02:18.118Z,99.12
2022-11-11T17:05:04.219Z,99.59
2022-11-11T17:07:50.162Z,99.25
2022-11-11T17:10:40.011Z,100.00
2022-11-11T17:13:29.127Z,100.00
2022-11-11T17:16:15.202Z,100.00
2022-11-11T17:19:02.116Z,100.00
2022-11-11T17:21:48.182Z,100.00
2022-11-11T17:24:34.137Z,100.00
2022-11-11T17:27:20.164Z,100.00
2022-11-11T17:30:09.522Z,100.00
2022-11-11T17:32:55.757Z,100.00
2022-11-11T17:35:51.155Z,100.00
2022-11-11T17:38:38.042Z,100.00
2022-11-11T17:41:24.427Z,100.00
2022-11-11T17:44:10.733Z,100.00
2022-11-11T17:46:57.981Z,100.00
2022-11-11T17:49:56.079Z,100.00
2022-11-11T17:52:42.999Z,100.00
2022-11-11T17:55:29.352Z,100.00
2022-11-11T17:58:15.345Z,100.00
2022-11-11T18:01:06.165Z,100.00
2022-11-11T18:03:57.713Z,100.00
2022-11-11T18:06:43.762Z,100.00
2022-11-11T18:09:30.168Z,100.00
2022-11-11T18:12:16.156Z,100.00
2022-11-11T18:15:02.679Z,100.00
2022-11-11T18:17:48.775Z,100.00
2022-11-11T18:20:36.406Z,100.00
2022-11-11T18:23:22.628Z,100.00
2022-11-11T18:26:09.401Z,100.00
2022-11-11T18:28:55.652Z,100.00
2022-11-11T18:31:41.846Z,100.00
2022-11-11T18:34:27.840Z,100.00
2022-11-11T18:37:15.317Z,100.00
2022-11-11T18:40:01.556Z,100.00
2022-11-11T18:42:47.491Z,100.00
2022-11-11T18:45:36.563Z,100.00
2022-11-11T18:48:22.614Z,100.00
2022-11-11T18:51:10.486Z,100.00
2022-11-11T18:53:58.407Z,100.00
2022-11-11T18:56:44.635Z,100.00
2022-11-11T18:59:30.766Z,100.00
2022-11-11T19:02:16.964Z,100.00
2022-11-11T19:05:03.213Z,100.00
2022-11-11T19:07:49.468Z,100.00
2022-11-11T19:10:36.770Z,100.00
2022-11-11T19:13:23.268Z,100.00
2022-11-11T19:16:11.422Z,100.00
2022-11-11T19:18:57.989Z,100.00
2022-11-11T19:21:43.912Z,100.00
2022-11-11T19:24:33.784Z,100.00
2022-11-11T19:27:21.796Z,100.00
2022-11-11T19:30:08.986Z,100.00
2022-11-11T19:32:55.201Z,100.00
2022-11-11T19:35:41.594Z,100.00
2022-11-11T19:38:27.458Z,100.00
2022-11-11T19:41:15.386Z,100.00
2022-11-11T19:44:03.144Z,100.00
2022-11-11T19:46:49.140Z,100.00
2022-11-11T19:49:38.187Z,100.00
2022-11-11T19:52:24.479Z,100.00
2022-11-11T19:55:10.787Z,100.00
2022-11-11T19:57:57.579Z,100.00
2022-11-11T20:00:45.219Z,100.00
2022-11-11T20:03:34.558Z,100.00
2022-11-11T20:06:23.787Z,100.00
2022-11-11T20:09:10.355Z,100.00
2022-11-11T20:11:56.691Z,100.00
2022-11-11T20:14:42.728Z,100.00
2022-11-11T20:17:30.176Z,100.00
2022-11-11T20:20:16.751Z,100.00
2022-11-11T20:23:06.155Z,100.00
2022-11-11T20:25:52.495Z,100.00
2022-11-11T20:28:39.856Z,100.00
2022-11-11T20:31:28.250Z,100.00
2022-11-11T20:34:16.055Z,100.00
2022-11-11T20:37:02.232Z,100.00
2022-11-11T20:39:48.439Z,100.00
2022-11-11T20:42:34.386Z,100.00
2022-11-11T20:45:20.734Z,100.00
2022-11-11T20:48:09.494Z,100.00
2022-11-11T20:51:03.596Z,100.00
2022-11-11T20:53:52.998Z,100.00
2022-11-11T20:56:39.499Z,100.00
2022-11-11T20:59:25.703Z,100.00
2022-11-11T21:02:12.096Z,100.00
2022-11-11T21:04:58.912Z,100.00
2022-11-11T21:07:49.477Z,100.00
2022-11-11T21:10:35.419Z,100.00
2022-11-11T21:13:21.500Z,100.00
2022-11-11T21:16:14.065Z,100.00
2022-11-11T21:19:03.925Z,100.00
2022-11-11T21:21:50.090Z,100.00
2022-11-11T21:24:37.760Z,100.00
2022-11-11T21:27:23.803Z,100.00
2022-11-11T21:30:10.878Z,100.00
2022-11-11T21:32:57.090Z,100.00
2022-11-11T21:35:43.085Z,100.00
2022-11-11T21:38:29.316Z,100.00
2022-11-11T21:41:18.625Z,100.00
2022-11-11T21:44:05.670Z,100.00
2022-11-11T21:46:51.727Z,100.00
2022-11-11T21:49:37.949Z,100.00
2022-11-11T21:52:24.191Z,100.00
2022-11-11T21:55:10.395Z,100.00
2022-11-11T21:57:58.076Z,100.00
2022-11-11T22:00:44.420Z,100.00
2022-11-11T22:03:32.050Z,100.00
2022-11-11T22:06:18.464Z,100.00
2022-11-11T22:09:05.829Z,100.00
2022-11-11T22:11:51.740Z,100.00
2022-11-11T22:14:39.374Z,100.00
2022-11-11T22:17:25.425Z,100.00
2022-11-11T22:20:12.024Z,100.00
2022-11-11T22:22:58.137Z,100.00
2022-11-11T22:25:45.042Z,100.00
2022-11-11T22:28:32.952Z,100.00
2022-11-11T22:31:22.438Z,100.00
2022-11-11T22:34:10.694Z,100.00
2022-11-11T22:36:57.179Z,100.00
2022-11-11T22:39:43.164Z,100.00
2022-11-11T22:42:29.152Z,100.00
2022-11-11T22:45:15.198Z,100.00
2022-11-11T22:48:02.765Z,100.00
2022-11-11T22:50:48.954Z,100.00
2022-11-11T22:53:35.802Z,100.00
2022-11-11T22:56:22.099Z,100.00
2022-11-11T22:59:08.127Z,100.00
2022-11-11T23:01:54.761Z,100.00
2022-11-11T23:04:42.205Z,100.00
2022-11-11T23:07:28.410Z,100.00
2022-11-11T23:10:14.579Z,100.00
2022-11-11T23:13:00.611Z,100.00
2022-11-11T23:15:52.684Z,100.00
2022-11-11T23:18:39.460Z,100.00
2022-11-11T23:21:28.593Z,100.00
2022-11-11T23:24:14.943Z,100.00
2022-11-11T23:27:01.118Z,100.00
2022-11-11T23:29:52.203Z,100.00
2022-11-11T23:32:39.248Z,100.00
2022-11-11T23:35:25.301Z,100.00
2022-11-11T23:38:12.784Z,100.00
2022-11-11T23:40:59.193Z,100.00
2022-11-11T23:43:45.314Z,100.00
2022-11-11T23:46:35.526Z,100.00
2022-11-11T23:49:21.928Z,100.00
2022-11-11T23:52:07.963Z,100.00
2022-11-11T23:54:55.438Z,100.00
2022-11-11T23:57:41.937Z,100.00
